Time;durP1;ratioP1;P1;durP2;ratioP2;P2;SDS_P1;SDS_P2;PMS_P1;PMS_P2;Temp;Humidity;BMP_temperature;BMP_pressure;BME280_temperature;BME280_humidity;BME280_pressure;Samples;Min_cycle;Max_cycle;Signal;HPM_P1;HPM_P2
2022/10/27 00:02:16;;;;;;;10.30;5.60;;;14.10;99.90;;;;;;5016948;28;20042;-63
2022/10/27 00:04:42;;;;;;;12.77;6.10;;;14.00;99.90;;;;;;5021590;28;20037;-65
2022/10/27 00:07:08;;;;;;;14.05;6.32;;;14.10;99.90;;;;;;5018826;28;20107;-63
2022/10/27 00:09:33;;;;;;;11.43;6.30;;;14.10;99.90;;;;;;5026779;28;20053;-62
2022/10/27 00:11:59;;;;;;;11.50;6.25;;;14.10;99.90;;;;;;5029599;28;20045;-63
2022/10/27 00:14:25;;;;;;;12.73;6.00;;;14.10;99.90;;;;;;5027602;28;20132;-65
2022/10/27 00:16:54;;;;;;;12.95;6.10;;;14.10;99.90;;;;;;5026186;28;20049;-66
2022/10/27 00:19:24;;;;;;;12.93;6.47;;;14.20;99.90;;;;;;5032031;28;20033;-62
2022/10/27 00:21:50;;;;;;;12.88;6.30;;;14.20;99.90;;;;;;5033042;28;20044;-63
2022/10/27 00:24:17;;;;;;;16.17;6.20;;;14.20;99.90;;;;;;5025087;28;20045;-63
2022/10/27 00:26:43;;;;;;;14.57;6.95;;;14.20;99.90;;;;;;5016717;28;20068;-63
2022/10/27 00:29:09;;;;;;;12.68;6.35;;;14.30;99.90;;;;;;5026605;28;20041;-63
2022/10/27 00:31:35;;;;;;;15.10;7.30;;;14.30;99.90;;;;;;5021443;28;20034;-62
2022/10/27 00:34:00;;;;;;;11.55;6.60;;;14.30;99.90;;;;;;5019459;28;20658;-64
2022/10/27 00:36:26;;;;;;;15.55;7.00;;;14.30;99.90;;;;;;5028813;28;20393;-63
2022/10/27 00:38:57;;;;;;;13.27;6.88;;;14.30;99.90;;;;;;5026852;28;20041;-64
2022/10/27 00:41:22;;;;;;;13.50;7.18;;;14.30;99.90;;;;;;5023613;28;20037;-63
2022/10/27 00:43:48;;;;;;;11.30;6.63;;;14.30;99.90;;;;;;5031018;28;20037;-63
2022/10/27 00:46:37;;;;;;;10.95;6.47;;;14.30;99.90;;;;;;5024556;28;20039;-65
2022/10/27 00:49:10;;;;;;;11.10;6.32;;;14.30;99.90;;;;;;5014872;28;20046;-63
2022/10/27 00:51:39;;;;;;;10.43;6.20;;;14.30;99.90;;;;;;5019239;28;20065;-63
2022/10/27 00:54:05;;;;;;;11.88;6.43;;;14.30;99.90;;;;;;5029548;28;20475;-63
2022/10/27 00:56:31;;;;;;;12.02;6.40;;;14.30;99.90;;;;;;5024014;28;20504;-63
2022/10/27 00:58:57;;;;;;;10.13;6.90;;;14.30;99.90;;;;;;5015199;28;20045;-62
2022/10/27 01:01:23;;;;;;;11.52;6.95;;;14.30;99.90;;;;;;5027477;28;20057;-65
2022/10/27 01:03:48;;;;;;;13.32;7.35;;;14.20;99.90;;;;;;5028174;28;20129;-63
2022/10/27 01:06:15;;;;;;;12.95;7.10;;;14.20;99.90;;;;;;5028300;28;20044;-63
2022/10/27 01:08:41;;;;;;;11.07;6.90;;;14.30;99.90;;;;;;5013953;28;20219;-63
2022/10/27 01:11:06;;;;;;;14.18;7.47;;;14.20;99.90;;;;;;5021701;28;20444;-63
2022/10/27 01:13:32;;;;;;;13.48;7.03;;;14.30;99.90;;;;;;5018495;28;20038;-66
2022/10/27 01:16:31;;;;;;;16.52;7.30;;;14.30;99.90;;;;;;5018083;28;20130;-63
2022/10/27 01:19:18;;;;;;;13.27;7.00;;;14.30;99.90;;;;;;5019607;28;20065;-63
2022/10/27 01:22:12;;;;;;;16.63;6.95;;;14.30;99.90;;;;;;5012989;28;20048;-67
2022/10/27 01:25:02;;;;;;;12.07;6.95;;;14.30;99.90;;;;;;5025226;28;20256;-63
2022/10/27 01:28:06;;;;;;;11.57;6.95;;;14.30;99.90;;;;;;5030064;28;20091;-63
2022/10/27 01:30:46;;;;;;;15.48;7.40;;;14.30;99.90;;;;;;5022472;28;20483;-63
2022/10/27 01:33:17;;;;;;;16.45;7.80;;;14.30;99.90;;;;;;5023521;28;20037;-63
2022/10/27 01:36:24;;;;;;;15.63;7.70;;;14.40;99.90;;;;;;5026222;28;20073;-63
2022/10/27 01:38:53;;;;;;;15.70;7.47;;;14.30;99.90;;;;;;5000256;28;20089;-65
2022/10/27 01:41:27;;;;;;;14.50;7.20;;;14.30;99.90;;;;;;5007778;28;20049;-66
2022/10/27 01:44:02;;;;;;;13.15;6.53;;;14.40;99.90;;;;;;5012392;28;20053;-66
2022/10/27 01:46:28;;;;;;;14.75;7.80;;;14.40;99.90;;;;;;5013425;28;20048;-63
2022/10/27 01:48:54;;;;;;;14.82;7.43;;;14.30;99.90;;;;;;5019372;28;20076;-64
2022/10/27 01:51:19;;;;;;;14.18;7.57;;;14.40;99.90;;;;;;5028517;28;20081;-65
2022/10/27 01:53:47;;;;;;;11.52;7.22;;;14.30;99.90;;;;;;5025000;28;20097;-66
2022/10/27 01:56:31;;;;;;;15.13;6.70;;;14.40;99.90;;;;;;5027491;28;20076;-63
2022/10/27 01:58:56;;;;;;;14.00;6.90;;;14.30;99.90;;;;;;5014840;28;20045;-63
2022/10/27 02:01:40;;;;;;;12.68;6.63;;;14.30;99.90;;;;;;5021323;28;20107;-63
2022/10/27 02:04:10;;;;;;;13.18;7.00;;;14.30;99.90;;;;;;5029496;28;20129;-64
2022/10/27 02:07:13;;;;;;;13.27;6.80;;;14.30;99.90;;;;;;5028310;28;20038;-63
2022/10/27 02:09:47;;;;;;;15.60;7.07;;;14.20;99.90;;;;;;5026783;28;20034;-63
2022/10/27 02:12:39;;;;;;;12.60;7.32;;;14.20;99.90;;;;;;5019683;28;20044;-63
2022/10/27 02:15:16;;;;;;;11.35;6.55;;;14.10;99.90;;;;;;5027611;28;20041;-63
2022/10/27 02:17:43;;;;;;;17.27;7.45;;;14.10;99.90;;;;;;5022930;28;20400;-62
2022/10/27 02:20:23;;;;;;;13.20;7.20;;;14.10;99.90;;;;;;5014376;28;20045;-62
2022/10/27 02:22:51;;;;;;;16.98;7.30;;;14.10;99.90;;;;;;5014806;28;20041;-63
2022/10/27 02:25:24;;;;;;;13.45;6.82;;;14.10;99.90;;;;;;5020739;28;20116;-62
2022/10/27 02:27:54;;;;;;;11.20;7.00;;;14.20;99.90;;;;;;5015718;28;20120;-63
2022/10/27 02:30:20;;;;;;;13.32;7.50;;;14.20;99.90;;;;;;5022305;28;20069;-62
2022/10/27 02:32:46;;;;;;;12.13;7.60;;;14.20;99.90;;;;;;5016066;28;20116;-61
2022/10/27 02:35:14;;;;;;;11.90;7.60;;;14.20;99.90;;;;;;5017545;28;20049;-62
2022/10/27 02:37:41;;;;;;;13.57;7.82;;;14.20;99.90;;;;;;5019008;28;20073;-62
2022/10/27 02:40:08;;;;;;;12.77;7.40;;;14.20;99.90;;;;;;5023547;28;20480;-62
2022/10/27 02:42:33;;;;;;;13.55;8.07;;;14.20;99.90;;;;;;5017568;28;20041;-62
2022/10/27 02:44:59;;;;;;;15.63;7.60;;;14.20;99.90;;;;;;5024641;28;20047;-63
2022/10/27 02:47:25;;;;;;;17.05;7.55;;;14.20;99.90;;;;;;5018096;28;20049;-62
2022/10/27 02:49:50;;;;;;;14.68;7.70;;;14.20;99.90;;;;;;5021088;28;20044;-62
2022/10/27 02:52:16;;;;;;;15.02;7.88;;;14.10;99.90;;;;;;5020351;28;20059;-62
2022/10/27 02:54:46;;;;;;;14.43;8.05;;;14.20;99.90;;;;;;5014497;28;20045;-62
2022/10/27 02:57:16;;;;;;;13.98;7.93;;;14.20;99.90;;;;;;5018263;28;20041;-62
2022/10/27 02:59:42;;;;;;;12.98;8.07;;;14.20;99.90;;;;;;5017633;28;20125;-62
2022/10/27 03:02:08;;;;;;;14.35;8.40;;;14.10;99.90;;;;;;5026141;28;20181;-62
2022/10/27 03:04:34;;;;;;;16.60;7.88;;;14.10;99.90;;;;;;5029805;28;20069;-62
2022/10/27 03:07:00;;;;;;;14.32;8.00;;;14.20;99.90;;;;;;5015680;28;20472;-63
2022/10/27 03:09:26;;;;;;;14.73;7.82;;;14.10;99.90;;;;;;5018053;28;20065;-63
2022/10/27 03:11:51;;;;;;;15.00;7.68;;;14.10;99.90;;;;;;5018102;28;20049;-63
2022/10/27 03:14:17;;;;;;;15.70;8.52;;;14.10;99.90;;;;;;5016777;28;20045;-62
2022/10/27 03:16:42;;;;;;;12.75;7.57;;;14.20;99.90;;;;;;5019575;28;20559;-62
2022/10/27 03:19:08;;;;;;;16.23;7.78;;;14.10;99.90;;;;;;5026642;28;20079;-62
2022/10/27 03:21:34;;;;;;;15.07;8.30;;;14.10;99.90;;;;;;5027537;28;20479;-64
2022/10/27 03:23:59;;;;;;;13.10;7.47;;;14.10;99.90;;;;;;5012525;28;20125;-61
2022/10/27 03:26:25;;;;;;;11.85;7.13;;;14.10;99.90;;;;;;5022537;28;20041;-62
2022/10/27 03:28:50;;;;;;;18.25;8.40;;;14.10;99.90;;;;;;5029793;28;20064;-62
2022/10/27 03:31:16;;;;;;;16.80;7.60;;;14.10;99.90;;;;;;5024808;28;20045;-63
2022/10/27 03:33:41;;;;;;;12.95;6.88;;;14.00;99.90;;;;;;5024309;28;20045;-63
2022/10/27 03:36:07;;;;;;;11.60;7.30;;;14.00;99.90;;;;;;5027353;28;20344;-63
2022/10/27 03:38:33;;;;;;;14.27;7.30;;;14.00;99.90;;;;;;5021217;28;20369;-63
2022/10/27 03:40:58;;;;;;;13.70;7.18;;;14.00;99.90;;;;;;5020380;28;20524;-63
2022/10/27 03:43:24;;;;;;;11.45;6.88;;;14.00;99.90;;;;;;5018292;28;20120;-65
2022/10/27 03:45:50;;;;;;;11.38;7.28;;;14.00;99.90;;;;;;5025329;28;20041;-62
2022/10/27 03:48:15;;;;;;;11.85;6.60;;;13.90;99.90;;;;;;5031096;28;20045;-63
2022/10/27 03:50:46;;;;;;;11.52;6.85;;;13.90;99.90;;;;;;5026855;28;20033;-63
2022/10/27 03:53:12;;;;;;;13.40;6.78;;;13.90;99.90;;;;;;5030326;28;20045;-63
2022/10/27 03:55:38;;;;;;;11.18;6.82;;;13.90;99.90;;;;;;5030829;28;20285;-62
2022/10/27 03:58:04;;;;;;;15.70;6.75;;;13.90;99.90;;;;;;5024878;28;20518;-62
2022/10/27 04:00:32;;;;;;;10.73;6.88;;;13.90;99.90;;;;;;5020416;28;20030;-63
2022/10/27 04:02:58;;;;;;;12.38;6.95;;;13.90;99.90;;;;;;5033153;28;20060;-63
2022/10/27 04:05:24;;;;;;;16.45;7.28;;;13.90;99.90;;;;;;5022549;28;20030;-64
2022/10/27 04:07:50;;;;;;;13.20;6.93;;;13.90;99.90;;;;;;5020379;28;20052;-63
2022/10/27 04:10:16;;;;;;;12.30;6.95;;;13.90;99.90;;;;;;5025165;28;20080;-64
2022/10/27 04:12:49;;;;;;;14.77;7.07;;;13.90;99.90;;;;;;5031546;28;20059;-64
2022/10/27 04:15:15;;;;;;;11.93;6.75;;;13.90;99.90;;;;;;5030265;28;20088;-64
2022/10/27 04:17:41;;;;;;;12.30;6.43;;;13.90;99.90;;;;;;5013786;28;20049;-62
2022/10/27 04:20:07;;;;;;;12.93;7.22;;;13.90;99.90;;;;;;5026575;28;20263;-63
2022/10/27 04:22:32;;;;;;;11.07;7.03;;;13.90;99.90;;;;;;5021005;28;20033;-62
2022/10/27 04:24:58;;;;;;;12.77;7.03;;;13.90;99.90;;;;;;5023973;28;20038;-63
2022/10/27 04:27:23;;;;;;;13.23;6.75;;;13.90;99.90;;;;;;5027046;28;20041;-62
2022/10/27 04:29:49;;;;;;;11.68;6.70;;;13.90;99.90;;;;;;5020266;28;20064;-64
2022/10/27 04:32:15;;;;;;;10.20;6.75;;;13.90;99.90;;;;;;5028449;28;20041;-62
2022/10/27 04:34:40;;;;;;;16.33;7.40;;;13.90;99.90;;;;;;5027708;28;20179;-62
2022/10/27 04:37:06;;;;;;;11.25;7.07;;;13.80;99.90;;;;;;5022071;28;20040;-63
2022/10/27 04:39:31;;;;;;;13.38;7.38;;;13.90;99.90;;;;;;5021592;28;20059;-65
2022/10/27 04:41:57;;;;;;;12.50;7.65;;;13.80;99.90;;;;;;5023985;28;20033;-62
2022/10/27 04:44:23;;;;;;;16.02;8.25;;;13.90;99.90;;;;;;5028731;28;20029;-63
2022/10/27 04:46:48;;;;;;;14.27;7.55;;;13.80;99.90;;;;;;5025858;28;20512;-63
2022/10/27 04:49:14;;;;;;;13.35;7.97;;;13.80;99.90;;;;;;5017674;28;20173;-66
2022/10/27 04:51:39;;;;;;;12.02;8.43;;;13.80;99.90;;;;;;5024085;28;20058;-62
2022/10/27 04:54:05;;;;;;;14.80;8.98;;;13.80;99.90;;;;;;5024609;28;20033;-62
2022/10/27 04:56:31;;;;;;;16.02;9.02;;;13.80;99.90;;;;;;5030235;28;20079;-62
2022/10/27 04:58:56;;;;;;;17.25;8.65;;;13.90;99.90;;;;;;5031790;28;20045;-64
2022/10/27 05:01:22;;;;;;;14.30;8.48;;;13.80;99.90;;;;;;5028531;28;20036;-62
2022/10/27 05:03:49;;;;;;;16.98;8.55;;;13.90;99.90;;;;;;5016484;28;20370;-62
2022/10/27 05:06:15;;;;;;;17.27;8.30;;;13.80;99.90;;;;;;5020460;28;20037;-63
2022/10/27 05:08:40;;;;;;;13.02;8.57;;;13.90;99.90;;;;;;5026317;28;20107;-66
2022/10/27 05:11:06;;;;;;;15.20;9.38;;;13.80;99.90;;;;;;5022930;28;20512;-62
2022/10/27 05:13:32;;;;;;;17.38;9.40;;;13.90;99.90;;;;;;5028318;28;20127;-62
2022/10/27 05:16:02;;;;;;;15.43;9.25;;;13.80;99.90;;;;;;5027786;28;20053;-64
2022/10/27 05:18:28;;;;;;;16.25;9.27;;;13.90;99.90;;;;;;5018721;28;20038;-62
2022/10/27 05:20:54;;;;;;;15.75;8.48;;;13.80;99.90;;;;;;5021287;28;20096;-62
2022/10/27 05:23:20;;;;;;;12.32;8.63;;;13.80;99.90;;;;;;5030685;28;20049;-62
2022/10/27 05:25:53;;;;;;;15.85;9.15;;;13.80;99.90;;;;;;5023585;28;20049;-62
2022/10/27 05:28:19;;;;;;;15.52;9.52;;;13.80;99.90;;;;;;5017283;28;20046;-62
2022/10/27 05:30:45;;;;;;;12.30;9.38;;;13.80;99.90;;;;;;5029599;28;20052;-65
2022/10/27 05:33:11;;;;;;;17.98;9.27;;;13.80;99.90;;;;;;5029013;28;20049;-62
2022/10/27 05:35:37;;;;;;;14.70;8.60;;;13.90;99.90;;;;;;5012692;28;20052;-63
2022/10/27 05:38:02;;;;;;;13.50;9.50;;;13.80;99.90;;;;;;5029886;28;20443;-64
2022/10/27 05:40:33;;;;;;;16.60;8.98;;;13.80;99.90;;;;;;5014328;28;20045;-64
2022/10/27 05:42:59;;;;;;;16.00;10.00;;;13.90;99.90;;;;;;5031349;28;20045;-64
2022/10/27 05:45:25;;;;;;;13.52;9.30;;;13.80;99.90;;;;;;5024018;28;20407;-64
2022/10/27 05:48:09;;;;;;;19.10;9.45;;;13.90;99.90;;;;;;5029484;28;20045;-64
2022/10/27 05:50:36;;;;;;;14.38;9.35;;;13.90;99.90;;;;;;5024791;28;20079;-64
2022/10/27 05:53:04;;;;;;;15.18;8.65;;;13.80;99.90;;;;;;5029589;28;20400;-67
2022/10/27 05:55:30;;;;;;;15.23;9.23;;;13.90;99.90;;;;;;5026639;28;20383;-64
2022/10/27 05:57:59;;;;;;;13.57;9.60;;;13.90;99.90;;;;;;5027773;28;20045;-65
2022/10/27 06:00:29;;;;;;;13.65;8.77;;;13.90;99.90;;;;;;5027787;28;20038;-64
2022/10/27 06:02:59;;;;;;;16.70;8.82;;;13.90;99.90;;;;;;5025651;28;20045;-64
2022/10/27 06:05:26;;;;;;;13.80;8.05;;;13.80;99.90;;;;;;5026232;28;20041;-64
2022/10/27 06:07:52;;;;;;;13.20;7.85;;;13.80;99.90;;;;;;5025383;28;20044;-64
2022/10/27 06:10:18;;;;;;;14.80;8.80;;;13.80;99.90;;;;;;5019380;28;20041;-65
2022/10/27 06:12:44;;;;;;;12.43;8.52;;;13.80;99.90;;;;;;5027797;28;20087;-65
2022/10/27 06:15:10;;;;;;;16.48;9.23;;;13.80;99.90;;;;;;5028844;28;20109;-62
2022/10/27 06:17:35;;;;;;;17.00;8.25;;;13.70;99.90;;;;;;5028429;28;20045;-62
2022/10/27 06:20:01;;;;;;;13.32;7.97;;;13.70;99.90;;;;;;5011031;28;20141;-68
2022/10/27 06:22:26;;;;;;;14.90;8.48;;;13.70;99.90;;;;;;5024245;28;20027;-65
2022/10/27 06:24:52;;;;;;;13.32;8.38;;;13.70;99.90;;;;;;5028595;28;20041;-62
2022/10/27 06:27:18;;;;;;;14.90;8.57;;;13.70;99.90;;;;;;5028019;28;20060;-62
2022/10/27 06:29:43;;;;;;;11.18;8.38;;;13.70;99.90;;;;;;5020858;28;20034;-62
2022/10/27 06:32:09;;;;;;;11.77;8.15;;;13.70;99.90;;;;;;5017184;28;20034;-64
2022/10/27 06:34:34;;;;;;;13.85;8.13;;;13.70;99.90;;;;;;5025205;28;20037;-62
2022/10/27 06:37:02;;;;;;;14.07;8.60;;;13.70;99.90;;;;;;5025619;28;20073;-62
2022/10/27 06:39:28;;;;;;;13.68;8.77;;;13.70;99.90;;;;;;5015383;28;20121;-62
2022/10/27 06:41:55;;;;;;;12.60;8.32;;;13.70;99.90;;;;;;5024546;28;20040;-62
2022/10/27 06:44:21;;;;;;;12.40;8.23;;;13.70;99.90;;;;;;5044750;28;20034;-62
2022/10/27 06:46:46;;;;;;;12.27;8.10;;;13.70;99.90;;;;;;5021646;28;20072;-62
2022/10/27 06:49:12;;;;;;;16.52;8.45;;;13.70;99.90;;;;;;5018982;28;20372;-67
2022/10/27 06:51:37;;;;;;;16.45;7.45;;;13.70;99.90;;;;;;5026052;28;20041;-63
2022/10/27 06:54:03;;;;;;;14.13;8.45;;;13.70;99.90;;;;;;5024478;28;20045;-62
2022/10/27 06:56:29;;;;;;;14.15;8.70;;;13.70;99.90;;;;;;5019746;28;20030;-62
2022/10/27 06:58:54;;;;;;;12.57;8.23;;;13.70;99.90;;;;;;5027594;28;20045;-63
2022/10/27 07:01:20;;;;;;;16.13;8.90;;;13.80;99.90;;;;;;5023675;28;20033;-64
2022/10/27 07:03:45;;;;;;;14.05;9.02;;;13.80;99.90;;;;;;5015150;28;20038;-66
2022/10/27 07:06:11;;;;;;;16.33;9.18;;;13.80;99.90;;;;;;5012229;28;20044;-62
2022/10/27 07:08:37;;;;;;;13.45;8.38;;;13.80;99.90;;;;;;5020114;28;20489;-62
2022/10/27 07:11:03;;;;;;;15.27;8.52;;;13.90;99.90;;;;;;5026322;28;20033;-63
2022/10/27 07:13:28;;;;;;;12.38;8.30;;;13.90;99.90;;;;;;5020597;28;20519;-63
2022/10/27 07:15:54;;;;;;;15.48;8.85;;;13.90;99.90;;;;;;5025356;28;20451;-66
2022/10/27 07:18:20;;;;;;;15.30;8.98;;;13.90;99.90;;;;;;5017955;28;20483;-71
2022/10/27 07:20:47;;;;;;;14.25;9.63;;;13.90;99.90;;;;;;5025656;28;20037;-63
2022/10/27 07:23:12;;;;;;;15.45;9.43;;;14.00;99.90;;;;;;5018423;28;20029;-64
2022/10/27 07:25:39;;;;;;;16.02;8.55;;;14.00;99.90;;;;;;5031156;28;20155;-67
2022/10/27 07:28:05;;;;;;;18.80;8.98;;;14.10;99.90;;;;;;5033586;28;20056;-67
2022/10/27 07:30:34;;;;;;;17.83;9.15;;;14.00;99.90;;;;;;5026594;28;20508;-64
2022/10/27 07:32:59;;;;;;;17.88;8.75;;;14.10;99.90;;;;;;5028439;28;20045;-63
2022/10/27 07:35:26;;;;;;;14.85;8.40;;;14.10;99.90;;;;;;5024287;28;20052;-63
2022/10/27 07:37:52;;;;;;;15.10;7.85;;;14.10;99.90;;;;;;5019423;28;20069;-62
2022/10/27 07:40:19;;;;;;;16.30;8.20;;;14.20;99.90;;;;;;5021141;28;20041;-64
2022/10/27 07:42:55;;;;;;;14.43;7.78;;;14.20;99.90;;;;;;5020429;28;20049;-64
2022/10/27 07:45:23;;;;;;;14.00;8.57;;;14.20;99.90;;;;;;5021442;28;20567;-64
2022/10/27 07:47:51;;;;;;;16.95;8.43;;;14.20;99.90;;;;;;5026257;28;20056;-64
2022/10/27 07:50:19;;;;;;;13.52;7.30;;;14.20;99.90;;;;;;5029924;28;20091;-64
2022/10/27 07:52:47;;;;;;;18.00;8.27;;;14.30;99.90;;;;;;5020246;28;20053;-64
2022/10/27 07:55:14;;;;;;;16.70;8.57;;;14.40;99.90;;;;;;5027784;28;20037;-63
2022/10/27 07:57:41;;;;;;;17.48;8.15;;;14.30;99.90;;;;;;5032270;28;20063;-65
2022/10/27 08:00:10;;;;;;;13.95;8.88;;;14.30;99.90;;;;;;5029659;28;20045;-65
2022/10/27 08:02:35;;;;;;;17.33;8.80;;;14.40;99.90;;;;;;5013460;28;20034;-64
2022/10/27 08:05:01;;;;;;;14.93;8.00;;;14.40;99.90;;;;;;5022908;28;20476;-64
2022/10/27 08:07:27;;;;;;;15.45;8.20;;;14.40;99.90;;;;;;5027078;28;20346;-64
2022/10/27 08:09:53;;;;;;;16.45;8.30;;;14.40;99.90;;;;;;5031626;28;20083;-65
2022/10/27 08:12:19;;;;;;;15.32;8.40;;;14.50;99.90;;;;;;5031957;28;20045;-65
2022/10/27 08:14:44;;;;;;;13.00;7.78;;;14.50;99.90;;;;;;5027446;28;20140;-65
2022/10/27 08:17:10;;;;;;;14.65;9.32;;;14.50;99.90;;;;;;5032627;28;20037;-65
2022/10/27 08:19:35;;;;;;;15.77;8.50;;;14.50;99.90;;;;;;5027086;28;20069;-65
2022/10/27 08:22:01;;;;;;;14.27;7.80;;;14.50;99.90;;;;;;5021697;28;20088;-65
2022/10/27 08:24:26;;;;;;;13.90;8.02;;;14.50;99.90;;;;;;5024883;28;20063;-64
2022/10/27 08:26:52;;;;;;;16.08;7.80;;;14.50;99.90;;;;;;5032001;28;20425;-65
2022/10/27 08:29:18;;;;;;;14.57;7.75;;;14.50;99.90;;;;;;5024703;28;20068;-65
2022/10/27 08:31:43;;;;;;;14.00;8.10;;;14.50;99.90;;;;;;5019657;28;20460;-65
2022/10/27 08:34:09;;;;;;;13.43;8.27;;;14.50;99.90;;;;;;5024131;28;20040;-64
2022/10/27 08:36:38;;;;;;;15.27;8.35;;;14.50;99.90;;;;;;5031167;28;20480;-63
2022/10/27 08:39:08;;;;;;;11.95;8.27;;;14.50;99.90;;;;;;5029507;28;20041;-64
2022/10/27 08:42:03;;;;;;;13.30;8.32;;;14.50;99.90;;;;;;5027492;28;20045;-64
2022/10/27 08:44:38;;;;;;;16.30;8.98;;;14.50;99.90;;;;;;5029435;28;20429;-64
2022/10/27 08:47:09;;;;;;;17.00;8.00;;;14.50;99.90;;;;;;5029098;28;20041;-64
2022/10/27 08:49:43;;;;;;;13.45;8.20;;;14.50;99.90;;;;;;5027009;28;20065;-65
2022/10/27 08:52:20;;;;;;;16.92;8.52;;;14.60;99.90;;;;;;5029240;28;20095;-62
2022/10/27 08:54:50;;;;;;;12.65;7.88;;;14.60;99.90;;;;;;5026270;28;20042;-64
2022/10/27 08:57:30;;;;;;;17.45;8.32;;;14.70;99.90;;;;;;5026071;28;20522;-65
2022/10/27 08:59:57;;;;;;;12.70;7.32;;;14.70;99.90;;;;;;5016045;28;20038;-65
2022/10/27 09:02:46;;;;;;;10.52;7.05;;;14.80;99.90;;;;;;5022726;28;20053;-65
2022/10/27 09:05:28;;;;;;;15.45;6.72;;;14.80;99.90;;;;;;5025936;28;20048;-65
2022/10/27 09:09:07;;;;;;;11.65;6.55;;;14.90;99.90;;;;;;5029117;28;20439;-64
2022/10/27 09:11:58;;;;;;;11.68;6.45;;;14.90;99.90;;;;;;4933296;29;20058;-62
2022/10/27 09:14:55;;;;;;;13.35;6.68;;;15.10;99.90;;;;;;4951231;28;20043;-64
2022/10/27 09:17:28;;;;;;;12.27;6.40;;;15.20;99.90;;;;;;5009842;28;20053;-64
2022/10/27 09:20:00;;;;;;;15.85;6.18;;;15.20;99.90;;;;;;5026268;28;20044;-63
2022/10/27 09:22:28;;;;;;;12.80;6.50;;;15.30;99.90;;;;;;5021478;28;20104;-63
2022/10/27 09:25:03;;;;;;;11.45;5.90;;;15.40;99.90;;;;;;5028752;28;20496;-65
2022/10/27 09:27:29;;;;;;;13.00;5.70;;;15.50;99.90;;;;;;5030288;28;20041;-65
2022/10/27 09:30:00;;;;;;;11.65;5.57;;;15.50;99.90;;;;;;5027881;28;20560;-65
2022/10/27 09:32:26;;;;;;;11.80;5.35;;;15.60;99.90;;;;;;5026517;28;20531;-64
2022/10/27 09:35:00;;;;;;;10.25;5.10;;;15.60;99.90;;;;;;5025268;28;20037;-62
2022/10/27 09:37:28;;;;;;;10.02;4.57;;;15.70;99.90;;;;;;5023512;28;20459;-62
2022/10/27 09:39:56;;;;;;;13.27;4.72;;;15.80;99.90;;;;;;5025051;28;20033;-64
2022/10/27 09:42:21;;;;;;;11.80;4.57;;;15.90;99.90;;;;;;5018502;28;20045;-66
2022/10/27 09:44:55;;;;;;;12.05;4.28;;;15.90;99.90;;;;;;5019840;28;20397;-65
2022/10/27 09:47:22;;;;;;;10.05;4.97;;;16.00;99.90;;;;;;5028751;28;20045;-64
2022/10/27 09:49:49;;;;;;;10.23;4.72;;;16.10;99.90;;;;;;5025598;28;20101;-65
2022/10/27 09:52:22;;;;;;;12.18;4.78;;;16.20;99.90;;;;;;5015490;28;20046;-65
2022/10/27 09:54:53;;;;;;;11.70;4.53;;;16.30;99.90;;;;;;5017996;28;20081;-64
2022/10/27 09:57:22;;;;;;;9.43;4.22;;;16.30;99.90;;;;;;5013633;28;20042;-64
2022/10/27 10:00:20;;;;;;;10.32;4.40;;;16.40;99.90;;;;;;5029489;28;20064;-65
2022/10/27 10:03:06;;;;;;;8.35;4.20;;;16.50;99.90;;;;;;5003293;28;20377;-64
2022/10/27 10:05:34;;;;;;;9.95;4.30;;;16.50;99.90;;;;;;5019913;28;20491;-64
2022/10/27 10:08:22;;;;;;;7.45;3.90;;;16.60;99.90;;;;;;5025751;28;20053;-64
2022/10/27 10:11:03;;;;;;;9.85;4.15;;;16.60;99.90;;;;;;5016004;28;20041;-63
2022/10/27 10:13:36;;;;;;;8.63;3.63;;;16.70;99.90;;;;;;5020001;28;20044;-64
2022/10/27 10:16:09;;;;;;;9.98;3.72;;;16.80;99.90;;;;;;5025664;28;20041;-64
2022/10/27 10:18:37;;;;;;;9.32;3.70;;;16.80;99.90;;;;;;5027757;28;20084;-64
2022/10/27 10:21:06;;;;;;;8.10;3.70;;;16.90;99.90;;;;;;5028612;28;20095;-65
2022/10/27 10:23:50;;;;;;;9.85;4.10;;;16.90;99.90;;;;;;5013790;28;20034;-64
2022/10/27 10:26:25;;;;;;;9.43;3.60;;;17.00;99.90;;;;;;5021103;28;20095;-64
2022/10/27 10:28:54;;;;;;;6.97;3.35;;;17.10;99.90;;;;;;5026546;28;20107;-63
2022/10/27 10:31:27;;;;;;;9.63;3.55;;;17.10;99.90;;;;;;5028428;28;20427;-64
2022/10/27 10:34:07;;;;;;;8.70;3.33;;;17.20;99.90;;;;;;5023171;28;20328;-65
2022/10/27 10:36:38;;;;;;;5.63;2.40;;;17.20;99.90;;;;;;5029035;28;20120;-65
2022/10/27 10:39:25;;;;;;;5.95;2.53;;;17.20;99.90;;;;;;5022522;28;20041;-62
2022/10/27 10:42:08;;;;;;;6.80;2.58;;;17.20;99.90;;;;;;5026234;28;20069;-64
2022/10/27 10:44:35;;;;;;;5.45;2.50;;;17.30;99.90;;;;;;5019142;28;20037;-64
2022/10/27 10:47:01;;;;;;;5.78;2.35;;;17.40;99.90;;;;;;5027207;28;20034;-64
2022/10/27 10:49:33;;;;;;;8.55;3.33;;;17.40;99.90;;;;;;5027361;28;20099;-64
2022/10/27 10:52:04;;;;;;;4.90;2.00;;;17.50;99.90;;;;;;5025311;28;20072;-65
2022/10/27 10:54:40;;;;;;;6.28;2.47;;;17.60;99.90;;;;;;5028834;28;20030;-64
2022/10/27 10:57:23;;;;;;;4.60;2.00;;;17.60;99.90;;;;;;5023472;28;20432;-65
2022/10/27 10:59:53;;;;;;;4.13;1.90;;;17.60;99.90;;;;;;5016671;28;20156;-64
2022/10/27 11:02:30;;;;;;;4.30;1.75;;;17.70;99.90;;;;;;5025022;28;20513;-64
2022/10/27 11:05:09;;;;;;;7.10;2.08;;;17.70;99.90;;;;;;5020407;28;20432;-64
2022/10/27 11:07:35;;;;;;;7.82;2.17;;;17.70;99.90;;;;;;5025627;28;20037;-64
2022/10/27 11:10:19;;;;;;;6.32;1.73;;;17.80;99.90;;;;;;5026632;28;20124;-64
2022/10/27 11:12:55;;;;;;;3.40;1.90;;;17.80;99.90;;;;;;5041046;28;20049;-64
2022/10/27 11:15:29;;;;;;;5.57;2.05;;;17.80;99.90;;;;;;5021866;28;20096;-64
2022/10/27 11:18:07;;;;;;;6.43;1.80;;;17.90;99.90;;;;;;5022431;28;20049;-64
2022/10/27 11:20:36;;;;;;;8.50;2.10;;;17.80;99.90;;;;;;5022612;28;20132;-64
2022/10/27 11:23:15;;;;;;;5.43;2.20;;;17.90;99.90;;;;;;5025835;28;20577;-64
2022/10/27 11:25:41;;;;;;;5.97;1.83;;;17.90;99.90;;;;;;5029448;28;20403;-63
2022/10/27 11:28:18;;;;;;;7.50;2.20;;;17.80;99.90;;;;;;5029206;28;20064;-64
2022/10/27 11:31:09;;;;;;;7.13;2.00;;;17.80;99.90;;;;;;5027884;28;20388;-64
2022/10/27 11:33:45;;;;;;;7.22;2.10;;;17.80;99.90;;;;;;5014615;28;20053;-62
2022/10/27 11:36:20;;;;;;;6.10;2.45;;;17.80;99.90;;;;;;5022772;28;20404;-65
2022/10/27 11:39:05;;;;;;;6.85;2.00;;;17.90;99.90;;;;;;5018415;28;20056;-64
2022/10/27 11:41:37;;;;;;;6.45;2.25;;;17.90;99.90;;;;;;5007117;28;20046;-62
2022/10/27 11:44:27;;;;;;;5.43;2.20;;;17.90;99.90;;;;;;5022729;28;20049;-64
2022/10/27 11:47:08;;;;;;;5.78;2.08;;;17.90;99.90;;;;;;5024216;28;20056;-64
2022/10/27 11:49:53;;;;;;;6.10;1.98;;;17.90;99.90;;;;;;5021983;28;20045;-64
2022/10/27 11:52:23;;;;;;;7.07;2.30;;;17.90;99.90;;;;;;5021196;28;20100;-64
2022/10/27 11:54:50;;;;;;;9.52;2.00;;;17.90;99.90;;;;;;5024605;28;20077;-64
2022/10/27 11:57:42;;;;;;;4.50;1.70;;;18.00;99.90;;;;;;5015094;28;20038;-63
2022/10/27 12:00:18;;;;;;;3.00;1.80;;;18.10;99.90;;;;;;5027286;28;20475;-62
2022/10/27 12:02:54;;;;;;;5.63;1.80;;;18.20;99.90;;;;;;5027211;28;20033;-64
2022/10/27 12:05:30;;;;;;;5.03;1.95;;;18.20;99.90;;;;;;5022176;28;20121;-64
2022/10/27 12:08:09;;;;;;;5.18;2.17;;;18.20;99.90;;;;;;5030421;28;20049;-64
2022/10/27 12:10:40;;;;;;;3.92;1.85;;;18.20;99.90;;;;;;5021200;28;20037;-64
2022/10/27 12:13:19;;;;;;;4.78;1.90;;;18.20;99.90;;;;;;5026815;28;20446;-64
2022/10/27 12:15:54;;;;;;;4.80;1.83;;;18.20;99.90;;;;;;5031136;28;20067;-62
2022/10/27 12:18:33;;;;;;;2.72;1.55;;;18.30;99.90;;;;;;5020447;28;20045;-64
2022/10/27 12:21:12;;;;;;;5.65;1.80;;;18.30;99.90;;;;;;5022367;28;20060;-61
2022/10/27 12:24:04;;;;;;;7.55;2.13;;;18.30;99.90;;;;;;5030776;28;20029;-64
2022/10/27 12:26:49;;;;;;;5.13;2.17;;;18.30;99.90;;;;;;5028008;28;20057;-65
2022/10/27 12:29:16;;;;;;;6.68;2.10;;;18.30;99.90;;;;;;5029404;28;20815;-64
2022/10/27 12:31:50;;;;;;;5.57;2.08;;;18.30;99.90;;;;;;5028994;28;20530;-64
2022/10/27 12:34:17;;;;;;;4.68;2.08;;;18.30;99.90;;;;;;5029196;28;20049;-64
2022/10/27 12:37:10;;;;;;;3.72;1.65;;;18.30;99.90;;;;;;5028158;28;20045;-62
2022/10/27 12:39:36;;;;;;;3.55;2.03;;;18.20;99.90;;;;;;5023640;28;20057;-64
2022/10/27 12:42:25;;;;;;;8.40;1.90;;;18.30;99.90;;;;;;5017120;28;20399;-62
2022/10/27 12:45:24;;;;;;;5.07;2.00;;;18.30;99.90;;;;;;5019704;28;20050;-63
2022/10/27 12:48:15;;;;;;;5.35;1.85;;;18.30;99.90;;;;;;5025991;28;20041;-64
2022/10/27 12:51:01;;;;;;;4.80;1.60;;;18.30;99.90;;;;;;5022497;28;20041;-65
2022/10/27 12:53:46;;;;;;;4.60;1.75;;;18.40;99.90;;;;;;5022642;28;20245;-65
2022/10/27 12:56:24;;;;;;;4.40;1.70;;;18.50;99.90;;;;;;5015674;28;20034;-64
2022/10/27 12:59:19;;;;;;;6.70;1.63;;;18.70;99.90;;;;;;5024858;28;20072;-62